Airfield :
LOGIN :

Register | Disclaimer

   EN    FR    IT 

 










Legend :    VFR   Marginal VFR   IFR   Intensive IFR   Very Intensive IFR
Visi :
Ceiling :
>= 8 km
>= 3000ft
5 to 8 km
1000 to 3000 ft
1500m to 5 km
500 to 1000 ft
800 to 1500m
200 to 500 ft
< 800m
< 200 ft
Symbols :   Thunderstorms  Fog  Heavy snow  Heavy precipitations  Wind > 20 kt
SIGMETs :     Misc.  Thunderstorms  Icing  Turbulence  Mountain Waves  Volcanic Ashes






- Airport Elevation : 436 ft
- IATA code : BTS


LZIB - Bratislava

CURRENT METAR :
  • 282130Z 22003KT 210V280 9999 4500E FEW001 01/00 Q1004 R88/CLRD//

EXPIRED METARs :
  • 282100Z 21004KT 9999 3500E SCT001 M00/M00 Q1004 R88/CLRD//
  • 282030Z VRB01KT 3500 BR BKN002 M00/M00 Q1004 R88/CLRD//
  • 282000Z 13004KT 3200 BR BKN002 00/M00 Q1003 R88/CLRD//
  • 281930Z VRB02KT 3800 BR BKN002 00/M00 Q1004 R88/CLRD//
  • 281900Z 05004KT 360V070 3500 BR SCT002 BKN003 00/M00 Q1003 R88/CLRD// NOSIG

TAF AMD TAF LZIB
Valid from the 28 at 20:00 until the 29 at 18:00 UTC


282045Z 2820/2918 32010KT 9999 FEW020 BKN070
TEMPO 2820/2822 VRB02KT 3000 BR BKN001 BKN030
PROB40
TEMPO 2822/2904 30015KT
TEMPO 2908/2914 28017KT -SHRASN SCT030 BKN050



MET'MAP, your aeronautical weather chart ! - Copyright ORBIFLY December 2007 - Disclaimer

ORBIFLY MET'MAP TEAM :

Programming & Development : Alexandra Zaïnal
Concept & original design : Baudouin d'Aumeries
Assistance for programming : Marc-Olivier Méhu
Technical & hardware support : Manuel Goepfert

Contact : metmap@orbifly.com




SOURCES & CREDITS :

   NOAA